<?xml version="1.0" encoding="UTF-8" standalone="no"?>
<gpx version="1.1" creator="Trailforks.com" xmlns="http://www.topografix.com/GPX/1/1" xmlns:xsi="http://www.w3.org/2001/XMLSchema-instance" xsi:schemaLocation="http://www.topografix.com/GPX/1/1 http://www.topografix.com/GPX/1/1/gpx.xsd">
<metadata>
<name>The Groove Trailforks Trail</name>
<link href="https://www.trailforks.com/">
<text>Trailforks</text>
</link>
</metadata>
<trk>
<name>
The Groove
</name>
<trkseg>
<trkpt lat="44.02504" lon="8.15417">
<ele>490</ele>
<time>2024-03-27T07:14:42-07:00</time>
</trkpt>
<trkpt lat="44.02505" lon="8.15414">
<ele>490</ele>
<time>2024-03-27T07:14:43-07:00</time>
</trkpt>
<trkpt lat="44.0251" lon="8.15415">
<ele>490</ele>
<time>2024-03-27T07:14:44-07:00</time>
</trkpt>
<trkpt lat="44.02516" lon="8.15413">
<ele>485</ele>
<time>2024-03-27T07:14:45-07:00</time>
</trkpt>
<trkpt lat="44.0252" lon="8.15415">
<ele>485</ele>
<time>2024-03-27T07:14:46-07:00</time>
</trkpt>
<trkpt lat="44.02519" lon="8.15412">
<ele>485</ele>
<time>2024-03-27T07:14:47-07:00</time>
</trkpt>
<trkpt lat="44.02522" lon="8.154">
<ele>481</ele>
<time>2024-03-27T07:14:48-07:00</time>
</trkpt>
<trkpt lat="44.02527" lon="8.1539">
<ele>481</ele>
<time>2024-03-27T07:14:49-07:00</time>
</trkpt>
<trkpt lat="44.02528" lon="8.1537">
<ele>476</ele>
<time>2024-03-27T07:14:50-07:00</time>
</trkpt>
<trkpt lat="44.02531" lon="8.15371">
<ele>476</ele>
<time>2024-03-27T07:14:51-07:00</time>
</trkpt>
<trkpt lat="44.02534" lon="8.15375">
<ele>481</ele>
<time>2024-03-27T07:14:52-07:00</time>
</trkpt>
<trkpt lat="44.02549" lon="8.15377">
<ele>473</ele>
<time>2024-03-27T07:14:53-07:00</time>
</trkpt>
<trkpt lat="44.02557" lon="8.15371">
<ele>469</ele>
<time>2024-03-27T07:14:54-07:00</time>
</trkpt>
<trkpt lat="44.02556" lon="8.15366">
<ele>469</ele>
<time>2024-03-27T07:14:55-07:00</time>
</trkpt>
<trkpt lat="44.02559" lon="8.15356">
<ele>469</ele>
<time>2024-03-27T07:14:56-07:00</time>
</trkpt>
<trkpt lat="44.02563" lon="8.15352">
<ele>469</ele>
<time>2024-03-27T07:14:57-07:00</time>
</trkpt>
<trkpt lat="44.02564" lon="8.15346">
<ele>464</ele>
<time>2024-03-27T07:14:58-07:00</time>
</trkpt>
<trkpt lat="44.02567" lon="8.15344">
<ele>464</ele>
<time>2024-03-27T07:14:59-07:00</time>
</trkpt>
<trkpt lat="44.02566" lon="8.15342">
<ele>464</ele>
<time>2024-03-27T07:15:00-07:00</time>
</trkpt>
<trkpt lat="44.02568" lon="8.15328">
<ele>464</ele>
<time>2024-03-27T07:15:01-07:00</time>
</trkpt>
<trkpt lat="44.02574" lon="8.15326">
<ele>452</ele>
<time>2024-03-27T07:15:02-07:00</time>
</trkpt>
<trkpt lat="44.02577" lon="8.15319">
<ele>446</ele>
<time>2024-03-27T07:15:03-07:00</time>
</trkpt>
<trkpt lat="44.02581" lon="8.15297">
<ele>446</ele>
<time>2024-03-27T07:15:04-07:00</time>
</trkpt>
<trkpt lat="44.02586" lon="8.15287">
<ele>441</ele>
<time>2024-03-27T07:15:05-07:00</time>
</trkpt>
<trkpt lat="44.02589" lon="8.15284">
<ele>441</ele>
<time>2024-03-27T07:15:06-07:00</time>
</trkpt>
<trkpt lat="44.02608" lon="8.15277">
<ele>430</ele>
<time>2024-03-27T07:15:07-07:00</time>
</trkpt>
<trkpt lat="44.02618" lon="8.15264">
<ele>430</ele>
<time>2024-03-27T07:15:08-07:00</time>
</trkpt>
<trkpt lat="44.02622" lon="8.1526">
<ele>426</ele>
<time>2024-03-27T07:15:09-07:00</time>
</trkpt>
<trkpt lat="44.02623" lon="8.15253">
<ele>426</ele>
<time>2024-03-27T07:15:10-07:00</time>
</trkpt>
<trkpt lat="44.0263" lon="8.15248">
<ele>416</ele>
<time>2024-03-27T07:15:11-07:00</time>
</trkpt>
<trkpt lat="44.02633" lon="8.15241">
<ele>416</ele>
<time>2024-03-27T07:15:12-07:00</time>
</trkpt>
<trkpt lat="44.02636" lon="8.15241">
<ele>416</ele>
<time>2024-03-27T07:15:13-07:00</time>
</trkpt>
<trkpt lat="44.02616" lon="8.15218">
<ele>422</ele>
<time>2024-03-27T07:15:14-07:00</time>
</trkpt>
<trkpt lat="44.02605" lon="8.15188">
<ele>418</ele>
<time>2024-03-27T07:15:15-07:00</time>
</trkpt>
<trkpt lat="44.02598" lon="8.15176">
<ele>412</ele>
<time>2024-03-27T07:15:16-07:00</time>
</trkpt>
<trkpt lat="44.0259" lon="8.15169">
<ele>426</ele>
<time>2024-03-27T07:15:17-07:00</time>
</trkpt>
<trkpt lat="44.0258" lon="8.15152">
<ele>420</ele>
<time>2024-03-27T07:15:18-07:00</time>
</trkpt>
<trkpt lat="44.02577" lon="8.15149">
<ele>420</ele>
<time>2024-03-27T07:15:19-07:00</time>
</trkpt>
<trkpt lat="44.02573" lon="8.15147">
<ele>420</ele>
<time>2024-03-27T07:15:20-07:00</time>
</trkpt>
<trkpt lat="44.0254" lon="8.15103">
<ele>432</ele>
<time>2024-03-27T07:15:21-07:00</time>
</trkpt>
<trkpt lat="44.02539" lon="8.1509">
<ele>425</ele>
<time>2024-03-27T07:15:22-07:00</time>
</trkpt>
<trkpt lat="44.02536" lon="8.15085">
<ele>425</ele>
<time>2024-03-27T07:15:23-07:00</time>
</trkpt>
<trkpt lat="44.0252" lon="8.15075">
<ele>425</ele>
<time>2024-03-27T07:15:24-07:00</time>
</trkpt>
<trkpt lat="44.02498" lon="8.15044">
<ele>427</ele>
<time>2024-03-27T07:15:25-07:00</time>
</trkpt>
<trkpt lat="44.02483" lon="8.1501">
<ele>427</ele>
<time>2024-03-27T07:15:26-07:00</time>
</trkpt>
<trkpt lat="44.02477" lon="8.15">
<ele>427</ele>
<time>2024-03-27T07:15:27-07:00</time>
</trkpt>
<trkpt lat="44.02458" lon="8.14954">
<ele>427</ele>
<time>2024-03-27T07:15:28-07:00</time>
</trkpt>
<trkpt lat="44.02446" lon="8.14936">
<ele>427</ele>
<time>2024-03-27T07:15:29-07:00</time>
</trkpt>
<trkpt lat="44.02443" lon="8.14921">
<ele>421</ele>
<time>2024-03-27T07:15:30-07:00</time>
</trkpt>
<trkpt lat="44.02434" lon="8.14902">
<ele>419</ele>
<time>2024-03-27T07:15:31-07:00</time>
</trkpt>
<trkpt lat="44.02428" lon="8.14879">
<ele>428</ele>
<time>2024-03-27T07:15:32-07:00</time>
</trkpt>
<trkpt lat="44.02418" lon="8.14871">
<ele>423</ele>
<time>2024-03-27T07:15:33-07:00</time>
</trkpt>
<trkpt lat="44.02387" lon="8.14863">
<ele>428</ele>
<time>2024-03-27T07:15:34-07:00</time>
</trkpt>
<trkpt lat="44.02374" lon="8.14854">
<ele>436</ele>
<time>2024-03-27T07:15:35-07:00</time>
</trkpt>
<trkpt lat="44.02371" lon="8.14849">
<ele>436</ele>
<time>2024-03-27T07:15:36-07:00</time>
</trkpt>
<trkpt lat="44.02374" lon="8.14838">
<ele>429</ele>
<time>2024-03-27T07:15:37-07:00</time>
</trkpt>
<trkpt lat="44.02372" lon="8.1484">
<ele>429</ele>
<time>2024-03-27T07:15:38-07:00</time>
</trkpt>
<trkpt lat="44.02366" lon="8.14837">
<ele>429</ele>
<time>2024-03-27T07:15:39-07:00</time>
</trkpt>
<trkpt lat="44.02363" lon="8.14824">
<ele>429</ele>
<time>2024-03-27T07:15:40-07:00</time>
</trkpt>
<trkpt lat="44.02358" lon="8.14819">
<ele>422</ele>
<time>2024-03-27T07:15:41-07:00</time>
</trkpt>
<trkpt lat="44.02354" lon="8.14811">
<ele>422</ele>
<time>2024-03-27T07:15:42-07:00</time>
</trkpt>
<trkpt lat="44.02352" lon="8.14809">
<ele>422</ele>
<time>2024-03-27T07:15:43-07:00</time>
</trkpt>
<trkpt lat="44.02342" lon="8.1481">
<ele>430</ele>
<time>2024-03-27T07:15:44-07:00</time>
</trkpt>
<trkpt lat="44.02331" lon="8.14795">
<ele>430</ele>
<time>2024-03-27T07:15:45-07:00</time>
</trkpt>
<trkpt lat="44.02323" lon="8.14793">
<ele>430</ele>
<time>2024-03-27T07:15:46-07:00</time>
</trkpt>
<trkpt lat="44.02322" lon="8.14789">
<ele>426</ele>
<time>2024-03-27T07:15:47-07:00</time>
</trkpt>
<trkpt lat="44.02312" lon="8.1478">
<ele>439</ele>
<time>2024-03-27T07:15:48-07:00</time>
</trkpt>
<trkpt lat="44.02307" lon="8.14755">
<ele>435</ele>
<time>2024-03-27T07:15:49-07:00</time>
</trkpt>
<trkpt lat="44.02301" lon="8.14747">
<ele>435</ele>
<time>2024-03-27T07:15:50-07:00</time>
</trkpt>
<trkpt lat="44.023" lon="8.14732">
<ele>434</ele>
<time>2024-03-27T07:15:51-07:00</time>
</trkpt>
<trkpt lat="44.02303" lon="8.14706">
<ele>434</ele>
<time>2024-03-27T07:15:52-07:00</time>
</trkpt>
<trkpt lat="44.02308" lon="8.14687">
<ele>434</ele>
<time>2024-03-27T07:15:53-07:00</time>
</trkpt>
<trkpt lat="44.02307" lon="8.14678">
<ele>440</ele>
<time>2024-03-27T07:15:54-07:00</time>
</trkpt>
<trkpt lat="44.02311" lon="8.14672">
<ele>440</ele>
<time>2024-03-27T07:15:55-07:00</time>
</trkpt>
<trkpt lat="44.02314" lon="8.14652">
<ele>450</ele>
<time>2024-03-27T07:15:56-07:00</time>
</trkpt>
<trkpt lat="44.02318" lon="8.14645">
<ele>450</ele>
<time>2024-03-27T07:15:57-07:00</time>
</trkpt>
<trkpt lat="44.02326" lon="8.14649">
<ele>439</ele>
<time>2024-03-27T07:15:58-07:00</time>
</trkpt>
<trkpt lat="44.02331" lon="8.14645">
<ele>439</ele>
<time>2024-03-27T07:15:59-07:00</time>
</trkpt>
<trkpt lat="44.02334" lon="8.14639">
<ele>439</ele>
<time>2024-03-27T07:16:00-07:00</time>
</trkpt>
<trkpt lat="44.02345" lon="8.14639">
<ele>439</ele>
<time>2024-03-27T07:16:01-07:00</time>
</trkpt>
<trkpt lat="44.02348" lon="8.14635">
<ele>431</ele>
<time>2024-03-27T07:16:02-07:00</time>
</trkpt>
<trkpt lat="44.02355" lon="8.14608">
<ele>442</ele>
<time>2024-03-27T07:16:03-07:00</time>
</trkpt>
<trkpt lat="44.02369" lon="8.14605">
<ele>442</ele>
<time>2024-03-27T07:16:04-07:00</time>
</trkpt>
<trkpt lat="44.02373" lon="8.14607">
<ele>442</ele>
<time>2024-03-27T07:16:05-07:00</time>
</trkpt>
<trkpt lat="44.02381" lon="8.14605">
<ele>433</ele>
<time>2024-03-27T07:16:06-07:00</time>
</trkpt>
<trkpt lat="44.02385" lon="8.14601">
<ele>433</ele>
<time>2024-03-27T07:16:07-07:00</time>
</trkpt>
<trkpt lat="44.02395" lon="8.14588">
<ele>441</ele>
<time>2024-03-27T07:16:08-07:00</time>
</trkpt>
<trkpt lat="44.02398" lon="8.14575">
<ele>441</ele>
<time>2024-03-27T07:16:09-07:00</time>
</trkpt>
<trkpt lat="44.02409" lon="8.14553">
<ele>434</ele>
<time>2024-03-27T07:16:10-07:00</time>
</trkpt>
<trkpt lat="44.0241" lon="8.14546">
<ele>434</ele>
<time>2024-03-27T07:16:11-07:00</time>
</trkpt>
<trkpt lat="44.0242" lon="8.14531">
<ele>437</ele>
<time>2024-03-27T07:16:12-07:00</time>
</trkpt>
<trkpt lat="44.02434" lon="8.14527">
<ele>423</ele>
<time>2024-03-27T07:16:13-07:00</time>
</trkpt>
<trkpt lat="44.0245" lon="8.14511">
<ele>424</ele>
<time>2024-03-27T07:16:14-07:00</time>
</trkpt>
<trkpt lat="44.02457" lon="8.14507">
<ele>424</ele>
<time>2024-03-27T07:16:15-07:00</time>
</trkpt>
<trkpt lat="44.02458" lon="8.14503">
<ele>424</ele>
<time>2024-03-27T07:16:16-07:00</time>
</trkpt>
<trkpt lat="44.0246" lon="8.14486">
<ele>409</ele>
<time>2024-03-27T07:16:17-07:00</time>
</trkpt>
<trkpt lat="44.02458" lon="8.14467">
<ele>421</ele>
<time>2024-03-27T07:16:18-07:00</time>
</trkpt>
<trkpt lat="44.02455" lon="8.14459">
<ele>421</ele>
<time>2024-03-27T07:16:19-07:00</time>
</trkpt>
<trkpt lat="44.02447" lon="8.14448">
<ele>416</ele>
<time>2024-03-27T07:16:20-07:00</time>
</trkpt>
<trkpt lat="44.02444" lon="8.14441">
<ele>416</ele>
<time>2024-03-27T07:16:21-07:00</time>
</trkpt>
<trkpt lat="44.02441" lon="8.14438">
<ele>416</ele>
<time>2024-03-27T07:16:22-07:00</time>
</trkpt>
<trkpt lat="44.02429" lon="8.14414">
<ele>418</ele>
<time>2024-03-27T07:16:23-07:00</time>
</trkpt>
<trkpt lat="44.02426" lon="8.14404">
<ele>418</ele>
<time>2024-03-27T07:16:24-07:00</time>
</trkpt>
<trkpt lat="44.02422" lon="8.14401">
<ele>411</ele>
<time>2024-03-27T07:16:25-07:00</time>
</trkpt>
<trkpt lat="44.02416" lon="8.14376">
<ele>411</ele>
<time>2024-03-27T07:16:26-07:00</time>
</trkpt>
<trkpt lat="44.02408" lon="8.14352">
<ele>401</ele>
<time>2024-03-27T07:16:27-07:00</time>
</trkpt>
<trkpt lat="44.02406" lon="8.14335">
<ele>392</ele>
<time>2024-03-27T07:16:28-07:00</time>
</trkpt>
<trkpt lat="44.02413" lon="8.14298">
<ele>386</ele>
<time>2024-03-27T07:16:29-07:00</time>
</trkpt>
<trkpt lat="44.02414" lon="8.14249">
<ele>382</ele>
<time>2024-03-27T07:16:30-07:00</time>
</trkpt>
<trkpt lat="44.02421" lon="8.14195">
<ele>382</ele>
<time>2024-03-27T07:16:31-07:00</time>
</trkpt>
<trkpt lat="44.02426" lon="8.14181">
<ele>382</ele>
<time>2024-03-27T07:16:32-07:00</time>
</trkpt>
<trkpt lat="44.0244" lon="8.14175">
<ele>366</ele>
<time>2024-03-27T07:16:33-07:00</time>
</trkpt>
<trkpt lat="44.02445" lon="8.14147">
<ele>368</ele>
<time>2024-03-27T07:16:34-07:00</time>
</trkpt>
<trkpt lat="44.02445" lon="8.14128">
<ele>368</ele>
<time>2024-03-27T07:16:35-07:00</time>
</trkpt>
<trkpt lat="44.0244" lon="8.14104">
<ele>367</ele>
<time>2024-03-27T07:16:36-07:00</time>
</trkpt>
<trkpt lat="44.02442" lon="8.14043">
<ele>364</ele>
<time>2024-03-27T07:16:37-07:00</time>
</trkpt>
<trkpt lat="44.02437" lon="8.14004">
<ele>362</ele>
<time>2024-03-27T07:16:38-07:00</time>
</trkpt>
<trkpt lat="44.02441" lon="8.13998">
<ele>362</ele>
<time>2024-03-27T07:16:39-07:00</time>
</trkpt>
<trkpt lat="44.02444" lon="8.13986">
<ele>359</ele>
<time>2024-03-27T07:16:40-07:00</time>
</trkpt>
<trkpt lat="44.02452" lon="8.13969">
<ele>359</ele>
<time>2024-03-27T07:16:41-07:00</time>
</trkpt>
<trkpt lat="44.02473" lon="8.13954">
<ele>349</ele>
<time>2024-03-27T07:16:42-07:00</time>
</trkpt>
<trkpt lat="44.02475" lon="8.13949">
<ele>349</ele>
<time>2024-03-27T07:16:43-07:00</time>
</trkpt>
<trkpt lat="44.02466" lon="8.13946">
<ele>349</ele>
<time>2024-03-27T07:16:44-07:00</time>
</trkpt>
<trkpt lat="44.02455" lon="8.1394">
<ele>354</ele>
<time>2024-03-27T07:16:45-07:00</time>
</trkpt>
<trkpt lat="44.02452" lon="8.13941">
<ele>354</ele>
<time>2024-03-27T07:16:46-07:00</time>
</trkpt>
<trkpt lat="44.02436" lon="8.13937">
<ele>354</ele>
<time>2024-03-27T07:16:47-07:00</time>
</trkpt>
<trkpt lat="44.02422" lon="8.13929">
<ele>346</ele>
<time>2024-03-27T07:16:48-07:00</time>
</trkpt>
<trkpt lat="44.02397" lon="8.13887">
<ele>338</ele>
<time>2024-03-27T07:16:49-07:00</time>
</trkpt>
<trkpt lat="44.02393" lon="8.13885">
<ele>338</ele>
<time>2024-03-27T07:16:50-07:00</time>
</trkpt>
<trkpt lat="44.02389" lon="8.1389">
<ele>338</ele>
<time>2024-03-27T07:16:51-07:00</time>
</trkpt>
<trkpt lat="44.02377" lon="8.13922">
<ele>347</ele>
<time>2024-03-27T07:16:52-07:00</time>
</trkpt>
<trkpt lat="44.0236" lon="8.13934">
<ele>350</ele>
<time>2024-03-27T07:16:53-07:00</time>
</trkpt>
<trkpt lat="44.02339" lon="8.13927">
<ele>328</ele>
<time>2024-03-27T07:16:54-07:00</time>
</trkpt>
<trkpt lat="44.02313" lon="8.13939">
<ele>331</ele>
<time>2024-03-27T07:16:55-07:00</time>
</trkpt>
<trkpt lat="44.02293" lon="8.13944">
<ele>331</ele>
<time>2024-03-27T07:16:56-07:00</time>
</trkpt>
<trkpt lat="44.02275" lon="8.13932">
<ele>322</ele>
<time>2024-03-27T07:16:57-07:00</time>
</trkpt>
<trkpt lat="44.02268" lon="8.1393">
<ele>311</ele>
<time>2024-03-27T07:16:58-07:00</time>
</trkpt>
</trkseg>
</trk>
</gpx>
